createdAt,value
2023-03-16T00:00:06.949Z,1013.4
2023-03-16T00:01:06.976Z,1013.5
2023-03-16T00:02:07.130Z,1013.5
2023-03-16T00:03:07.065Z,1013.4
2023-03-16T00:04:07.005Z,1013.5
2023-03-16T00:05:07.030Z,1013.4
2023-03-16T00:06:07.025Z,1013.4
2023-03-16T00:07:07.063Z,1013.4
2023-03-16T00:08:07.052Z,1013.4
2023-03-16T00:09:07.075Z,1013.5
2023-03-16T00:10:07.105Z,1013.5
2023-03-16T00:11:07.099Z,1013.4
2023-03-16T00:12:07.112Z,1013.4
2023-03-16T00:13:07.142Z,1013.5
2023-03-16T00:14:07.155Z,1013.5
2023-03-16T00:15:07.201Z,1013.5
2023-03-16T00:16:07.235Z,1013.5
2023-03-16T00:17:07.153Z,1013.5
2023-03-16T00:18:07.157Z,1013.6
2023-03-16T00:19:07.197Z,1013.5
2023-03-16T00:20:07.242Z,1013.5
2023-03-16T00:21:07.234Z,1013.5
2023-03-16T00:22:07.325Z,1013.5
2023-03-16T00:23:07.246Z,1013.5
2023-03-16T00:24:07.260Z,1013.5
2023-03-16T00:25:07.262Z,1013.5
2023-03-16T00:26:07.307Z,1013.5
2023-03-16T00:27:07.305Z,1013.5
2023-03-16T00:28:07.305Z,1013.5
2023-03-16T00:29:07.324Z,1013.6
2023-03-16T00:30:07.320Z,1013.6
2023-03-16T00:31:07.340Z,1013.6
2023-03-16T00:32:07.348Z,1013.6
2023-03-16T00:33:07.478Z,1013.6
2023-03-16T00:34:07.360Z,1013.6
2023-03-16T00:35:09.830Z,1013.6
2023-03-16T00:36:07.475Z,1013.7
2023-03-16T00:37:07.526Z,1013.7
2023-03-16T00:38:07.396Z,1013.6
2023-03-16T00:39:07.425Z,1013.6
2023-03-16T00:40:07.423Z,1013.6
2023-03-16T00:41:07.443Z,1013.6
2023-03-16T00:42:07.431Z,1013.6
2023-03-16T00:43:07.456Z,1013.6
2023-03-16T00:44:07.461Z,1013.6
2023-03-16T00:45:07.482Z,1013.6
2023-03-16T00:46:07.552Z,1013.6
2023-03-16T00:47:07.497Z,1013.7
2023-03-16T00:48:07.510Z,1013.6
2023-03-16T00:49:07.536Z,1013.6
2023-03-16T00:50:07.540Z,1013.6
2023-03-16T00:51:07.559Z,1013.6
2023-03-16T00:52:07.560Z,1013.6
2023-03-16T00:53:07.569Z,1013.6
2023-03-16T00:54:07.582Z,1013.5
2023-03-16T00:55:07.592Z,1013.6
2023-03-16T00:56:07.619Z,1013.6
2023-03-16T00:57:07.641Z,1013.6
2023-03-16T00:58:07.624Z,1013.6
2023-03-16T00:59:07.645Z,1013.6
2023-03-16T01:00:07.663Z,1013.6
2023-03-16T01:01:07.935Z,1013.6
2023-03-16T01:02:07.705Z,1013.6
2023-03-16T01:03:07.816Z,1013.6
2023-03-16T01:04:07.718Z,1013.6
2023-03-16T01:05:07.755Z,1013.5
2023-03-16T01:06:07.748Z,1013.5
2023-03-16T01:07:07.756Z,1013.6
2023-03-16T01:08:07.761Z,1013.6
2023-03-16T01:09:07.763Z,1013.7
2023-03-16T01:10:07.782Z,1013.7
2023-03-16T01:11:07.785Z,1013.6
2023-03-16T01:12:07.816Z,1013.6
2023-03-16T01:13:07.835Z,1013.7
2023-03-16T01:14:07.838Z,1013.7
2023-03-16T01:15:07.851Z,1013.7
2023-03-16T01:16:07.868Z,1013.7
2023-03-16T01:17:08.273Z,1013.6
2023-03-16T01:18:07.886Z,1013.6
2023-03-16T01:19:07.907Z,1013.6
2023-03-16T01:20:07.929Z,1013.6
2023-03-16T01:21:07.947Z,1013.6
2023-03-16T01:22:07.963Z,1013.6
2023-03-16T01:23:07.980Z,1013.6
2023-03-16T01:24:07.977Z,1013.5
2023-03-16T01:25:08.009Z,1013.6
2023-03-16T01:26:07.994Z,1013.5
2023-03-16T01:27:08.028Z,1013.6
2023-03-16T01:28:08.016Z,1013.5
2023-03-16T01:29:08.036Z,1013.6
2023-03-16T01:30:08.040Z,1013.5
2023-03-16T01:31:08.335Z,1013.6
2023-03-16T01:49:08.649Z,1013.5
2023-03-16T01:50:08.304Z,1013.5
2023-03-16T01:51:08.330Z,1013.5
2023-03-16T01:52:08.332Z,1013.5
2023-03-16T01:53:08.357Z,1013.4
2023-03-16T01:54:08.353Z,1013.5
2023-03-16T01:55:08.386Z,1013.4
2023-03-16T01:56:08.383Z,1013.4
2023-03-16T01:57:08.428Z,1013.4
2023-03-16T01:58:08.404Z,1013.4
2023-03-16T01:59:08.399Z,1013.4
2023-03-16T02:00:08.431Z,1013.4
2023-03-16T02:01:08.521Z,1013.4
2023-03-16T02:02:08.451Z,1013.5
2023-03-16T02:03:08.471Z,1013.4
2023-03-16T02:04:08.772Z,1013.4
2023-03-16T02:05:08.484Z,1013.4
2023-03-16T02:06:08.497Z,1013.4
2023-03-16T02:07:08.503Z,1013.4
2023-03-16T02:08:08.511Z,1013.5
2023-03-16T02:09:08.520Z,1013.4
2023-03-16T02:10:08.549Z,1013.4
2023-03-16T02:11:08.584Z,1013.4
2023-03-16T02:12:08.563Z,1013.4
2023-03-16T02:13:08.566Z,1013.4
2023-03-16T02:14:08.577Z,1013.4
2023-03-16T02:15:08.585Z,1013.4
2023-03-16T02:16:08.776Z,1013.4
2023-03-16T02:17:08.611Z,1013.4
2023-03-16T02:18:08.621Z,1013.4
2023-03-16T02:19:08.630Z,1013.4
2023-03-16T02:20:08.650Z,1013.4
2023-03-16T02:21:08.653Z,1013.4
2023-03-16T02:22:08.663Z,1013.4
2023-03-16T02:23:08.676Z,1013.3
2023-03-16T02:24:08.679Z,1013.3
2023-03-16T02:25:08.700Z,1013.3
2023-03-16T02:26:08.706Z,1013.4
2023-03-16T02:27:08.717Z,1013.4
2023-03-16T02:28:08.726Z,1013.3
2023-03-16T02:29:08.741Z,1013.3
2023-03-16T02:30:08.764Z,1013.3
2023-03-16T02:31:08.920Z,1013.4
2023-03-16T02:32:08.800Z,1013.3
2023-03-16T02:33:08.797Z,1013.3
2023-03-16T02:34:08.796Z,1013.3
2023-03-16T02:35:08.815Z,1013.3
2023-03-16T02:36:08.973Z,1013.3
2023-03-16T02:37:08.840Z,1013.3
2023-03-16T02:38:08.863Z,1013.3
2023-03-16T02:39:08.851Z,1013.3
2023-03-16T02:40:08.873Z,1013.3
2023-03-16T02:41:08.879Z,1013.3
2023-03-16T02:42:08.885Z,1013.3
2023-03-16T02:43:08.893Z,1013.3
2023-03-16T02:44:08.939Z,1013.3
2023-03-16T02:45:08.951Z,1013.3
2023-03-16T02:46:09.026Z,1013.3
2023-03-16T02:47:08.951Z,1013.3
2023-03-16T02:48:08.970Z,1013.3
2023-03-16T02:49:09.003Z,1013.2
2023-03-16T02:50:09.010Z,1013.3
2023-03-16T02:51:09.005Z,1013.3
2023-03-16T02:52:09.017Z,1013.3
2023-03-16T02:53:09.038Z,1013.3
2023-03-16T02:54:09.034Z,1013.3
2023-03-16T02:55:09.071Z,1013.2
2023-03-16T02:56:09.057Z,1013.2
2023-03-16T02:57:09.081Z,1013.3
2023-03-16T02:58:09.083Z,1013.3
2023-03-16T02:59:09.112Z,1013.2
2023-03-16T03:00:09.110Z,1013.3
2023-03-16T03:01:09.147Z,1013.2
2023-03-16T03:02:11.396Z,1013.3
2023-03-16T03:03:09.217Z,1013.2
2023-03-16T03:04:09.152Z,1013.3
2023-03-16T03:05:09.181Z,1013.2
2023-03-16T03:06:09.202Z,1013.3
2023-03-16T03:07:09.218Z,1013.3
2023-03-16T03:08:09.251Z,1013.3
2023-03-16T03:09:09.242Z,1013.2
2023-03-16T03:10:09.258Z,1013.3
2023-03-16T03:11:09.261Z,1013.3
2023-03-16T03:12:09.269Z,1013.3
2023-03-16T03:13:09.284Z,1013.3
2023-03-16T03:14:09.294Z,1013.3
2023-03-16T03:15:09.321Z,1013.3
2023-03-16T03:16:09.400Z,1013.3
2023-03-16T03:17:09.332Z,1013.2
2023-03-16T03:18:09.335Z,1013.3
2023-03-16T03:19:09.336Z,1013.3
2023-03-16T03:20:09.341Z,1013.3
2023-03-16T03:21:09.351Z,1013.4
2023-03-16T03:22:09.364Z,1013.3
2023-03-16T03:23:09.370Z,1013.3
2023-03-16T03:24:09.389Z,1013.4
2023-03-16T03:25:09.446Z,1013.4
2023-03-16T03:26:09.412Z,1013.4
2023-03-16T03:27:09.417Z,1013.4
2023-03-16T03:28:09.691Z,1013.3
2023-03-16T03:29:09.429Z,1013.3
2023-03-16T03:30:09.430Z,1013.3
2023-03-16T03:31:09.521Z,1013.3
2023-03-16T03:32:09.471Z,1013.2
2023-03-16T03:33:09.652Z,1013.3
2023-03-16T03:34:09.483Z,1013.3
2023-03-16T03:35:09.483Z,1013.3
2023-03-16T03:36:09.483Z,1013.3
2023-03-16T03:37:09.514Z,1013.4
2023-03-16T03:38:09.507Z,1013.4
2023-03-16T03:39:09.517Z,1013.3
2023-03-16T03:40:09.515Z,1013.3
2023-03-16T03:41:09.528Z,1013.3
2023-03-16T03:42:09.536Z,1013.3
2023-03-16T03:43:09.545Z,1013.4
2023-03-16T03:44:09.553Z,1013.3
2023-03-16T03:45:09.550Z,1013.4
2023-03-16T03:46:09.818Z,1013.3
2023-03-16T03:47:09.694Z,1013.3
2023-03-16T03:48:09.592Z,1013.4
2023-03-16T03:49:09.599Z,1013.4
2023-03-16T03:50:09.587Z,1013.4
2023-03-16T03:51:09.596Z,1013.4
2023-03-16T03:52:09.609Z,1013.3
2023-03-16T03:53:09.631Z,1013.4
2023-03-16T03:54:09.614Z,1013.4
2023-03-16T03:55:09.615Z,1013.3
2023-03-16T03:56:09.628Z,1013.4
2023-03-16T03:57:09.632Z,1013.4
2023-03-16T03:58:09.648Z,1013.3
2023-03-16T03:59:09.639Z,1013.4
2023-03-16T04:00:09.639Z,1013.5
2023-03-16T04:01:09.651Z,1013.4
2023-03-16T04:02:09.965Z,1013.4
2023-03-16T04:03:10.024Z,1013.5
2023-03-16T04:04:09.669Z,1013.4
2023-03-16T04:05:09.697Z,1013.4
2023-03-16T04:06:09.685Z,1013.3
2023-03-16T04:07:09.695Z,1013.4
2023-03-16T04:08:09.704Z,1013.4
2023-03-16T04:09:09.705Z,1013.3
2023-03-16T04:10:09.700Z,1013.4
2023-03-16T04:11:09.717Z,1013.4
2023-03-16T04:12:09.725Z,1013.3
2023-03-16T04:13:09.726Z,1013.3
2023-03-16T04:14:09.747Z,1013.3
2023-03-16T04:15:09.746Z,1013.4
2023-03-16T04:16:09.769Z,1013.3
2023-03-16T04:17:09.769Z,1013.4
2023-03-16T04:18:09.788Z,1013.4
2023-03-16T04:19:09.787Z,1013.4
2023-03-16T04:20:09.790Z,1013.3
2023-03-16T04:21:09.801Z,1013.3
2023-03-16T04:22:09.804Z,1013.3
2023-03-16T04:23:09.806Z,1013.3
2023-03-16T04:24:09.850Z,1013.3
2023-03-16T04:25:11.665Z,1013.3
2023-03-16T04:26:09.825Z,1013.3
2023-03-16T04:27:09.852Z,1013.3
2023-03-16T04:28:09.891Z,1013.3
2023-03-16T04:29:09.860Z,1013.2
2023-03-16T04:30:09.883Z,1013.3
2023-03-16T04:31:09.962Z,1013.3
2023-03-16T04:32:09.876Z,1013.2
2023-03-16T04:33:10.051Z,1013.3
2023-03-16T04:34:09.917Z,1013.3
2023-03-16T04:35:09.907Z,1013.1
2023-03-16T04:36:10.144Z,1013.2
2023-03-16T04:37:09.906Z,1013.3
2023-03-16T04:38:09.916Z,1013.2
2023-03-16T04:39:09.944Z,1013.3
2023-03-16T04:40:11.137Z,1013.3
2023-03-16T04:41:09.939Z,1013.2
2023-03-16T04:42:09.949Z,1013.1
2023-03-16T04:43:09.952Z,1013.2
2023-03-16T04:44:09.956Z,1013.3
2023-03-16T04:45:09.992Z,1013.3
2023-03-16T04:46:10.036Z,1013.2
2023-03-16T04:47:09.989Z,1013.3
2023-03-16T04:48:09.995Z,1013.3
2023-03-16T04:49:10.048Z,1013.3
2023-03-16T04:50:09.992Z,1013.3
2023-03-16T04:51:10.000Z,1013.4
2023-03-16T04:52:10.016Z,1013.3
2023-03-16T04:53:10.023Z,1013.2
2023-03-16T04:54:10.031Z,1013.2
2023-03-16T04:55:10.031Z,1013.3
2023-03-16T04:56:10.042Z,1013.3
2023-03-16T04:57:10.047Z,1013.2
2023-03-16T04:58:10.050Z,1013.3
2023-03-16T04:59:10.064Z,1013.3
2023-03-16T05:00:10.074Z,1013.3
2023-03-16T05:01:10.145Z,1013.2
2023-03-16T05:02:10.154Z,1013.2
2023-03-16T05:03:10.093Z,1013.2
2023-03-16T05:04:19.361Z,1013.2
2023-03-16T05:05:10.355Z,1013.2
2023-03-16T05:06:10.126Z,1013.2
2023-03-16T05:07:10.119Z,1013.2
2023-03-16T05:08:10.121Z,1013.2
2023-03-16T05:09:10.118Z,1013.2
2023-03-16T05:10:10.137Z,1013.2
2023-03-16T05:11:10.132Z,1013.2
2023-03-16T05:12:10.142Z,1013.2
2023-03-16T05:13:10.144Z,1013.2
2023-03-16T05:14:10.147Z,1013.2
2023-03-16T05:15:10.172Z,1013.1
2023-03-16T05:16:10.267Z,1013.1
2023-03-16T05:17:10.162Z,1013.2
2023-03-16T05:18:10.183Z,1013.2
2023-03-16T05:19:10.180Z,1013.1
2023-03-16T05:20:10.206Z,1013.1
2023-03-16T05:21:10.199Z,1013.1
2023-03-16T05:22:10.246Z,1013.1
2023-03-16T05:23:10.228Z,1013.1
2023-03-16T05:24:10.232Z,1013.1
2023-03-16T05:25:10.234Z,1013.1
2023-03-16T05:26:10.229Z,1013.1
2023-03-16T05:27:10.241Z,1013.1
2023-03-16T05:28:10.278Z,1013.1
2023-03-16T05:29:10.254Z,1013.0
2023-03-16T05:30:10.254Z,1013.1
2023-03-16T05:31:10.424Z,1013.0
2023-03-16T05:32:10.266Z,1013.0
2023-03-16T05:33:10.454Z,1013.0
2023-03-16T05:34:10.292Z,1013.0
2023-03-16T05:35:10.289Z,1013.2
2023-03-16T05:36:10.412Z,1013.1
2023-03-16T05:37:10.301Z,1013.2
2023-03-16T05:38:10.300Z,1013.2
2023-03-16T05:39:10.310Z,1013.1
2023-03-16T05:40:10.334Z,1013.1
2023-03-16T05:41:10.331Z,1013.1
2023-03-16T05:42:10.530Z,1013.2
2023-03-16T05:43:10.336Z,1013.2
2023-03-16T05:44:10.344Z,1013.3
2023-03-16T05:45:10.358Z,1013.3
2023-03-16T05:46:10.431Z,1013.3
2023-03-16T05:47:10.371Z,1013.3
2023-03-16T05:48:10.398Z,1013.3
2023-03-16T05:49:10.381Z,1013.4
2023-03-16T05:50:10.391Z,1013.4
2023-03-16T05:51:10.391Z,1013.4
2023-03-16T05:52:10.401Z,1013.4
2023-03-16T05:53:10.408Z,1013.4
2023-03-16T05:54:10.414Z,1013.4
2023-03-16T05:55:10.429Z,1013.5
2023-03-16T05:56:10.430Z,1013.4
2023-03-16T05:57:10.454Z,1013.4
2023-03-16T05:58:10.474Z,1013.5
2023-03-16T05:59:10.465Z,1013.5
2023-03-16T06:00:10.468Z,1013.4
2023-03-16T06:01:10.472Z,1013.5
2023-03-16T06:02:10.477Z,1013.4
2023-03-16T06:03:10.746Z,1013.5
2023-03-16T06:04:10.678Z,1013.4
2023-03-16T06:05:10.500Z,1013.5
2023-03-16T06:06:10.501Z,1013.4
2023-03-16T06:07:10.508Z,1013.5
2023-03-16T06:08:10.544Z,1013.4
2023-03-16T06:09:10.547Z,1013.5
2023-03-16T06:10:10.593Z,1013.6
2023-03-16T06:11:10.526Z,1013.4
2023-03-16T06:12:10.554Z,1013.4
2023-03-16T06:13:10.554Z,1013.4
2023-03-16T06:14:10.570Z,1013.4
2023-03-16T06:15:10.547Z,1013.4
2023-03-16T06:16:10.809Z,1013.4
2023-03-16T06:17:10.573Z,1013.4
2023-03-16T06:18:10.578Z,1013.4
2023-03-16T06:19:10.598Z,1013.4
2023-03-16T06:20:10.591Z,1013.5
2023-03-16T06:21:10.588Z,1013.4
2023-03-16T06:22:10.788Z,1013.4
2023-03-16T06:23:10.607Z,1013.3
2023-03-16T06:24:10.615Z,1013.4
2023-03-16T06:25:10.630Z,1013.4
2023-03-16T06:26:10.664Z,1013.5
2023-03-16T06:27:10.638Z,1013.4
2023-03-16T06:28:10.754Z,1013.4
2023-03-16T06:29:10.677Z,1013.5
2023-03-16T06:30:10.661Z,1013.5
2023-03-16T06:31:10.792Z,1013.5
2023-03-16T06:32:10.679Z,1013.5
2023-03-16T06:33:10.899Z,1013.6
2023-03-16T06:34:10.692Z,1013.5
2023-03-16T06:35:10.742Z,1013.6
2023-03-16T06:36:10.901Z,1013.5
2023-03-16T06:37:10.717Z,1013.5
2023-03-16T06:38:10.713Z,1013.6
2023-03-16T06:39:10.740Z,1013.7
2023-03-16T06:40:10.905Z,1013.6
2023-03-16T06:41:10.844Z,1013.6
2023-03-16T06:42:10.873Z,1013.6
2023-03-16T06:43:10.759Z,1013.6
2023-03-16T06:44:10.771Z,1013.7
2023-03-16T06:45:10.782Z,1013.7
2023-03-16T06:46:10.850Z,1013.7
2023-03-16T06:47:10.813Z,1013.7
2023-03-16T06:48:10.858Z,1013.7
2023-03-16T06:49:10.814Z,1013.7
2023-03-16T06:50:10.822Z,1013.8
2023-03-16T06:51:10.809Z,1013.7
2023-03-16T06:52:10.813Z,1013.6
2023-03-16T06:53:10.824Z,1013.7
2023-03-16T06:54:10.839Z,1013.6
2023-03-16T06:55:10.830Z,1013.6
2023-03-16T06:56:10.844Z,1013.6
2023-03-16T06:57:10.845Z,1013.6
2023-03-16T06:58:10.860Z,1013.7
2023-03-16T06:59:10.859Z,1013.6
2023-03-16T07:00:10.864Z,1013.7
2023-03-16T07:01:11.028Z,1013.6
2023-03-16T07:02:10.878Z,1013.6
2023-03-16T07:03:10.890Z,1013.7
2023-03-16T07:04:11.011Z,1013.6
2023-03-16T07:05:10.894Z,1013.7
2023-03-16T07:06:10.897Z,1013.6
2023-03-16T07:07:10.916Z,1013.7
2023-03-16T07:08:10.919Z,1013.6
2023-03-16T07:09:10.918Z,1013.6
2023-03-16T07:10:10.941Z,1013.6
2023-03-16T07:11:10.963Z,1013.5
2023-03-16T07:12:10.940Z,1013.6
2023-03-16T07:13:10.963Z,1013.6
2023-03-16T07:14:10.954Z,1013.7
2023-03-16T07:15:10.982Z,1013.7
2023-03-16T07:16:11.039Z,1013.6
2023-03-16T07:17:10.969Z,1013.6
2023-03-16T07:18:10.968Z,1013.7
2023-03-16T07:19:10.991Z,1013.7
2023-03-16T07:20:10.991Z,1013.6
2023-03-16T07:21:11.003Z,1013.7
2023-03-16T07:22:11.007Z,1013.6
2023-03-16T07:23:10.999Z,1013.7
2023-03-16T07:24:11.032Z,1013.7
2023-03-16T07:25:11.019Z,1013.7
2023-03-16T07:26:11.025Z,1013.8
2023-03-16T07:27:12.748Z,1013.8
2023-03-16T07:28:11.046Z,1013.8
2023-03-16T07:29:11.094Z,1013.7
2023-03-16T07:30:11.043Z,1013.7
2023-03-16T07:31:11.062Z,1013.8
2023-03-16T07:32:11.197Z,1013.8
2023-03-16T07:33:11.216Z,1013.8
2023-03-16T07:34:11.071Z,1013.8
2023-03-16T07:35:11.152Z,1013.8
2023-03-16T07:36:11.244Z,1013.8
2023-03-16T07:37:11.104Z,1013.8
2023-03-16T07:38:11.100Z,1013.8
2023-03-16T07:39:11.111Z,1013.8
2023-03-16T07:40:11.133Z,1013.9
2023-03-16T07:41:11.131Z,1013.8
2023-03-16T07:42:11.126Z,1013.8
2023-03-16T07:43:11.134Z,1013.8
2023-03-16T07:44:11.138Z,1013.9
2023-03-16T07:45:11.146Z,1013.9
2023-03-16T07:46:11.243Z,1013.8
2023-03-16T07:47:11.160Z,1013.8
2023-03-16T07:48:11.186Z,1013.8
2023-03-16T07:49:11.181Z,1013.8
2023-03-16T07:50:11.183Z,1013.8
2023-03-16T07:51:11.184Z,1013.8
2023-03-16T07:52:11.192Z,1013.8
2023-03-16T07:53:11.212Z,1013.8
2023-03-16T07:54:11.201Z,1013.8
2023-03-16T07:55:11.206Z,1013.9
2023-03-16T07:56:11.222Z,1013.8
2023-03-16T07:57:11.227Z,1013.8
2023-03-16T07:58:11.332Z,1013.8
2023-03-16T07:59:11.277Z,1013.8
2023-03-16T08:00:11.246Z,1013.8
2023-03-16T08:01:11.257Z,1013.8
2023-03-16T08:02:11.317Z,1013.8
2023-03-16T08:03:11.316Z,1013.8
2023-03-16T08:04:11.276Z,1013.9
2023-03-16T08:05:11.352Z,1013.9
2023-03-16T08:06:11.273Z,1013.8
2023-03-16T08:07:11.312Z,1013.9
2023-03-16T08:08:11.307Z,1013.9
2023-03-16T08:09:11.426Z,1013.9
2023-03-16T08:10:11.298Z,1013.8
2023-03-16T08:11:11.371Z,1013.9
2023-03-16T08:12:11.323Z,1013.9
2023-03-16T08:13:11.348Z,1013.8
2023-03-16T08:14:11.321Z,1013.8
2023-03-16T08:15:11.325Z,1013.8
2023-03-16T08:16:11.489Z,1013.8
2023-03-16T08:17:11.346Z,1013.8
2023-03-16T08:18:11.364Z,1013.8
2023-03-16T08:19:11.360Z,1013.8
2023-03-16T08:20:11.390Z,1013.8
2023-03-16T08:21:11.364Z,1013.8
2023-03-16T08:22:11.372Z,1013.8
2023-03-16T08:23:11.379Z,1013.8
2023-03-16T08:24:11.386Z,1013.8
2023-03-16T08:25:11.395Z,1013.8
2023-03-16T08:26:11.403Z,1013.8
2023-03-16T08:27:11.413Z,1013.8
2023-03-16T08:28:11.418Z,1013.8
2023-03-16T08:29:11.681Z,1013.8
2023-03-16T08:30:11.475Z,1013.9
2023-03-16T08:31:11.566Z,1013.8
2023-03-16T08:32:11.442Z,1013.8
2023-03-16T08:33:11.650Z,1013.8
2023-03-16T08:34:11.456Z,1013.8
2023-03-16T08:35:11.461Z,1013.8
2023-03-16T08:36:11.562Z,1013.8
2023-03-16T08:37:11.508Z,1013.8
2023-03-16T08:38:11.529Z,1013.8
2023-03-16T08:39:12.292Z,1013.8
2023-03-16T08:40:11.511Z,1013.8
2023-03-16T08:41:11.537Z,1013.9
2023-03-16T08:42:11.683Z,1013.9
2023-03-16T08:43:11.632Z,1013.9
2023-03-16T08:44:11.529Z,1013.9
2023-03-16T08:45:14.567Z,1013.8
2023-03-16T08:46:11.673Z,1013.8
2023-03-16T08:47:11.553Z,1013.8
2023-03-16T08:48:11.557Z,1013.9
2023-03-16T08:49:11.570Z,1013.8
2023-03-16T08:50:11.571Z,1013.8
2023-03-16T08:51:11.612Z,1013.8
2023-03-16T08:52:11.582Z,1013.8
2023-03-16T08:53:11.657Z,1013.8
2023-03-16T08:54:11.602Z,1013.8
2023-03-16T08:55:11.638Z,1013.8
2023-03-16T08:56:11.633Z,1013.8
2023-03-16T08:57:11.618Z,1013.8
2023-03-16T08:58:11.630Z,1013.8
2023-03-16T08:59:29.650Z,1013.8
2023-03-16T09:00:11.638Z,1013.8
2023-03-16T09:01:11.648Z,1013.8
2023-03-16T09:02:11.870Z,1013.8
2023-03-16T09:03:11.681Z,1013.8
2023-03-16T09:04:11.832Z,1013.8
2023-03-16T09:05:11.662Z,1013.8
2023-03-16T09:06:11.695Z,1013.8
2023-03-16T09:07:11.711Z,1013.8
2023-03-16T09:08:11.704Z,1013.8
2023-03-16T09:09:11.724Z,1013.7
2023-03-16T09:10:11.710Z,1013.8
2023-03-16T09:11:11.708Z,1013.7
2023-03-16T09:12:11.712Z,1013.7
2023-03-16T09:13:11.745Z,1013.7
2023-03-16T09:14:11.734Z,1013.7
2023-03-16T09:15:11.754Z,1013.6
2023-03-16T09:16:11.886Z,1013.7
2023-03-16T09:17:12.101Z,1013.7
2023-03-16T09:18:11.756Z,1013.7
2023-03-16T09:19:11.773Z,1013.6
2023-03-16T09:20:26.092Z,1013.7
2023-03-16T09:21:11.769Z,1013.6
2023-03-16T09:22:11.780Z,1013.8
2023-03-16T09:23:11.828Z,1013.8
2023-03-16T09:24:11.813Z,1013.7
2023-03-16T09:25:11.804Z,1013.7
2023-03-16T09:26:11.803Z,1013.6
2023-03-16T09:27:12.051Z,1013.6
2023-03-16T09:28:11.832Z,1013.7
2023-03-16T09:29:11.834Z,1013.6
2023-03-16T09:30:11.841Z,1013.6
2023-03-16T09:31:11.900Z,1013.7
2023-03-16T09:32:11.886Z,1013.6
2023-03-16T09:33:12.068Z,1013.7
2023-03-16T09:34:11.871Z,1013.5
2023-03-16T09:35:11.881Z,1013.5
2023-03-16T09:36:12.131Z,1013.6
2023-03-16T09:37:11.878Z,1013.5
2023-03-16T09:38:11.893Z,1013.5
2023-03-16T09:39:11.925Z,1013.5
2023-03-16T09:40:12.296Z,1013.4
2023-03-16T09:41:11.908Z,1013.5
2023-03-16T09:42:11.912Z,1013.5
2023-03-16T09:43:11.925Z,1013.5
2023-03-16T09:44:11.938Z,1013.4
2023-03-16T09:45:11.943Z,1013.5
2023-03-16T09:46:12.092Z,1013.5
2023-03-16T09:47:12.002Z,1013.4
2023-03-16T09:48:12.007Z,1013.5
2023-03-16T09:49:11.972Z,1013.5
2023-03-16T09:50:12.037Z,1013.4
2023-03-16T09:51:12.107Z,1013.4
2023-03-16T09:52:12.006Z,1013.5
2023-03-16T09:53:11.997Z,1013.5
2023-03-16T09:54:11.996Z,1013.4
2023-03-16T09:55:12.017Z,1013.5
2023-03-16T09:56:12.015Z,1013.4
2023-03-16T09:57:12.016Z,1013.4
2023-03-16T09:58:12.037Z,1013.4
2023-03-16T09:59:12.038Z,1013.3
2023-03-16T10:00:12.053Z,1013.3
2023-03-16T10:01:12.221Z,1013.4
2023-03-16T10:02:12.077Z,1013.3
2023-03-16T10:03:12.084Z,1013.3
2023-03-16T10:04:12.177Z,1013.3
2023-03-16T10:05:12.111Z,1013.3
2023-03-16T10:06:12.105Z,1013.3
2023-03-16T10:07:12.140Z,1013.4
2023-03-16T10:08:12.122Z,1013.3
2023-03-16T10:09:12.120Z,1013.3
2023-03-16T10:10:12.152Z,1013.3
2023-03-16T10:11:12.141Z,1013.3
2023-03-16T10:12:12.143Z,1013.2
2023-03-16T10:13:12.182Z,1013.2
2023-03-16T10:14:12.237Z,1013.3
2023-03-16T10:15:12.266Z,1013.2
2023-03-16T10:16:12.310Z,1013.2
2023-03-16T10:17:12.170Z,1013.2
2023-03-16T10:18:13.692Z,1013.2
2023-03-16T10:19:12.181Z,1013.1
2023-03-16T10:20:12.188Z,1013.2
2023-03-16T10:21:12.198Z,1013.2
2023-03-16T10:22:12.207Z,1013.2
2023-03-16T10:23:12.218Z,1013.2
2023-03-16T10:24:12.246Z,1013.0
2023-03-16T10:25:12.220Z,1013.3
2023-03-16T10:26:12.235Z,1013.2
2023-03-16T10:27:12.233Z,1013.3
2023-03-16T10:28:12.247Z,1013.2
2023-03-16T10:29:12.250Z,1013.2
2023-03-16T10:30:12.254Z,1013.2
2023-03-16T10:31:12.382Z,1013.2
2023-03-16T10:32:12.298Z,1013.2
2023-03-16T10:33:12.475Z,1013.2
2023-03-16T10:34:12.279Z,1013.3
2023-03-16T10:35:12.285Z,1013.2
2023-03-16T10:36:12.403Z,1013.3
2023-03-16T10:37:12.380Z,1013.2
2023-03-16T10:38:14.054Z,1013.1
2023-03-16T10:39:12.310Z,1013.2
2023-03-16T10:40:12.374Z,1013.2
2023-03-16T10:41:12.332Z,1013.1
2023-03-16T10:42:12.337Z,1013.2
2023-03-16T10:43:12.341Z,1013.2
2023-03-16T10:44:12.485Z,1013.2
2023-03-16T10:45:12.354Z,1013.2
2023-03-16T10:46:15.395Z,1013.1
2023-03-16T10:47:12.515Z,1013.1
2023-03-16T10:48:12.378Z,1013.1
2023-03-16T10:49:12.386Z,1013.1
2023-03-16T10:50:12.403Z,1013.1
2023-03-16T10:51:12.453Z,1013.0
2023-03-16T10:52:12.410Z,1013.0
2023-03-16T10:53:12.419Z,1013.1
2023-03-16T10:54:12.432Z,1012.9
2023-03-16T10:55:12.427Z,1013.0
2023-03-16T10:56:12.438Z,1013.0
2023-03-16T10:57:12.455Z,1013.0
2023-03-16T10:58:12.458Z,1013.0
2023-03-16T10:59:12.481Z,1012.9
2023-03-16T11:00:12.476Z,1012.9
2023-03-16T11:01:12.517Z,1013.0
2023-03-16T11:02:12.484Z,1012.9
2023-03-16T11:03:12.489Z,1012.9
2023-03-16T11:04:12.665Z,1013.0
2023-03-16T11:05:12.505Z,1012.9
2023-03-16T11:06:12.534Z,1012.8
2023-03-16T11:07:12.516Z,1012.8
2023-03-16T11:08:12.612Z,1012.8
2023-03-16T11:09:12.538Z,1012.8
2023-03-16T11:10:12.550Z,1012.8
2023-03-16T11:11:12.553Z,1012.8
2023-03-16T11:12:12.559Z,1012.8
2023-03-16T11:13:12.612Z,1012.9
2023-03-16T11:14:12.573Z,1012.8
2023-03-16T11:15:26.454Z,1012.8
2023-03-16T11:16:12.750Z,1012.8
2023-03-16T11:17:12.680Z,1012.8
2023-03-16T11:18:12.621Z,1012.8
2023-03-16T11:19:12.621Z,1012.7
2023-03-16T11:20:12.637Z,1012.8
2023-03-16T11:21:12.627Z,1012.7
2023-03-16T11:22:12.712Z,1012.7
2023-03-16T11:23:12.641Z,1012.7
2023-03-16T11:24:12.647Z,1012.6
2023-03-16T11:25:12.680Z,1012.7
2023-03-16T11:26:12.673Z,1012.5
2023-03-16T11:27:12.690Z,1012.7
2023-03-16T11:28:12.767Z,1012.6
2023-03-16T11:29:12.701Z,1012.6
2023-03-16T11:30:12.715Z,1012.6
2023-03-16T11:31:12.834Z,1012.5
2023-03-16T11:32:15.340Z,1012.5
2023-03-16T11:33:12.784Z,1012.5
2023-03-16T11:34:12.794Z,1012.5
2023-03-16T11:35:12.757Z,1012.5
2023-03-16T11:36:12.885Z,1012.6
2023-03-16T11:37:12.772Z,1012.5
2023-03-16T11:38:12.783Z,1012.5
2023-03-16T11:39:12.841Z,1012.4
2023-03-16T11:40:12.792Z,1012.4
2023-03-16T11:41:12.811Z,1012.4
2023-03-16T11:42:12.834Z,1012.3
2023-03-16T11:43:12.825Z,1012.3
2023-03-16T11:44:16.462Z,1012.4
2023-03-16T11:45:12.858Z,1012.4
2023-03-16T11:46:12.941Z,1012.4
2023-03-16T11:47:12.866Z,1012.5
2023-03-16T11:48:12.869Z,1012.5
2023-03-16T11:49:12.886Z,1012.5
2023-03-16T11:50:12.893Z,1012.4
2023-03-16T11:51:12.913Z,1012.4
2023-03-16T11:52:12.907Z,1012.4
2023-03-16T11:53:12.921Z,1012.3
2023-03-16T11:54:12.916Z,1012.3
2023-03-16T11:55:12.920Z,1012.3
2023-03-16T11:56:12.932Z,1012.3
2023-03-16T11:57:12.956Z,1012.3
2023-03-16T11:58:12.964Z,1012.3
2023-03-16T11:59:12.968Z,1012.2
2023-03-16T12:00:13.008Z,1012.2
2023-03-16T12:01:12.981Z,1012.2
2023-03-16T12:02:13.098Z,1012.2
2023-03-16T12:03:13.032Z,1012.2
2023-03-16T12:04:13.124Z,1012.1
2023-03-16T12:05:13.012Z,1012.2
2023-03-16T12:06:23.887Z,1012.1
2023-03-16T12:07:13.032Z,1012.0
2023-03-16T12:08:13.046Z,1012.0
2023-03-16T12:09:13.042Z,1012.0
2023-03-16T12:10:13.044Z,1012.0
2023-03-16T12:11:13.090Z,1012.0
2023-03-16T12:12:13.070Z,1012.1
2023-03-16T12:13:13.074Z,1012.0
2023-03-16T12:14:13.081Z,1012.0
2023-03-16T12:15:13.095Z,1012.0
2023-03-16T12:16:13.240Z,1011.9
2023-03-16T12:17:13.128Z,1011.9
2023-03-16T12:18:13.140Z,1011.8
2023-03-16T12:19:13.122Z,1011.9
2023-03-16T12:20:13.142Z,1011.9
2023-03-16T12:21:13.140Z,1011.8
2023-03-16T12:22:13.140Z,1011.9
2023-03-16T12:23:13.145Z,1011.7
2023-03-16T12:24:13.157Z,1011.8
2023-03-16T12:25:13.170Z,1011.9
2023-03-16T12:26:13.187Z,1011.8
2023-03-16T12:27:13.192Z,1011.8
2023-03-16T12:28:13.190Z,1011.8
2023-03-16T12:29:13.200Z,1011.8
2023-03-16T12:30:13.345Z,1011.7
2023-03-16T12:31:13.320Z,1011.9
2023-03-16T12:32:13.334Z,1011.8
2023-03-16T12:33:13.233Z,1011.7
2023-03-16T12:34:13.248Z,1011.8
2023-03-16T12:35:13.248Z,1011.8
2023-03-16T12:36:13.411Z,1011.8
2023-03-16T12:37:13.271Z,1011.7
2023-03-16T12:38:13.269Z,1011.6
2023-03-16T12:39:13.296Z,1011.7
2023-03-16T12:40:13.525Z,1011.6
2023-03-16T12:41:13.297Z,1011.7
2023-03-16T12:42:13.310Z,1011.7
2023-03-16T12:43:13.329Z,1011.6
2023-03-16T12:44:13.565Z,1011.7
2023-03-16T12:45:13.362Z,1011.7